sensor_id;sensor_type;location;lat;lon;timestamp;P1;durP1;ratioP1;P2;durP2;ratioP2
69629;SDS011;56857;52.212;5.496;2023-04-03T00:00:39;9.43;;;2.17;;
69629;SDS011;56857;52.212;5.496;2023-04-03T00:03:05;3.17;;;1.38;;
69629;SDS011;56857;52.212;5.496;2023-04-03T00:05:30;5.18;;;1.95;;
69629;SDS011;56857;52.212;5.496;2023-04-03T00:07:56;4.38;;;1.70;;
69629;SDS011;56857;52.212;5.496;2023-04-03T00:10:21;6.20;;;1.70;;
69629;SDS011;56857;52.212;5.496;2023-04-03T00:12:47;6.95;;;1.40;;
69629;SDS011;56857;52.212;5.496;2023-04-03T00:15:12;6.40;;;1.80;;
69629;SDS011;56857;52.212;5.496;2023-04-03T00:17:37;7.68;;;1.52;;
69629;SDS011;56857;52.212;5.496;2023-04-03T00:20:03;5.93;;;1.80;;
69629;SDS011;56857;52.212;5.496;2023-04-03T00:22:30;4.32;;;1.50;;
69629;SDS011;56857;52.212;5.496;2023-04-03T00:24:55;4.82;;;1.60;;
69629;SDS011;56857;52.212;5.496;2023-04-03T00:27:20;4.60;;;1.73;;
69629;SDS011;56857;52.212;5.496;2023-04-03T00:29:46;5.32;;;1.80;;
69629;SDS011;56857;52.212;5.496;2023-04-03T00:32:12;6.53;;;2.05;;
69629;SDS011;56857;52.212;5.496;2023-04-03T00:34:38;5.05;;;1.77;;
69629;SDS011;56857;52.212;5.496;2023-04-03T00:37:03;5.47;;;1.70;;
69629;SDS011;56857;52.212;5.496;2023-04-03T00:39:28;6.07;;;1.80;;
69629;SDS011;56857;52.212;5.496;2023-04-03T00:41:54;6.30;;;1.80;;
69629;SDS011;56857;52.212;5.496;2023-04-03T00:44:20;3.72;;;1.60;;
69629;SDS011;56857;52.212;5.496;2023-04-03T00:46:58;4.22;;;1.90;;
69629;SDS011;56857;52.212;5.496;2023-04-03T00:49:24;4.57;;;1.83;;
69629;SDS011;56857;52.212;5.496;2023-04-03T00:51:50;6.00;;;1.83;;
69629;SDS011;56857;52.212;5.496;2023-04-03T00:54:15;6.10;;;2.08;;
69629;SDS011;56857;52.212;5.496;2023-04-03T00:56:40;5.70;;;1.80;;
69629;SDS011;56857;52.212;5.496;2023-04-03T00:59:08;5.80;;;1.67;;
69629;SDS011;56857;52.212;5.496;2023-04-03T01:01:36;5.47;;;2.22;;
69629;SDS011;56857;52.212;5.496;2023-04-03T01:04:02;5.63;;;1.73;;
69629;SDS011;56857;52.212;5.496;2023-04-03T01:06:29;4.68;;;1.90;;
69629;SDS011;56857;52.212;5.496;2023-04-03T01:08:57;4.45;;;1.80;;
69629;SDS011;56857;52.212;5.496;2023-04-03T01:11:22;5.75;;;2.28;;
69629;SDS011;56857;52.212;5.496;2023-04-03T01:13:48;7.60;;;2.00;;
69629;SDS011;56857;52.212;5.496;2023-04-03T01:16:14;7.07;;;1.95;;
69629;SDS011;56857;52.212;5.496;2023-04-03T01:18:39;4.55;;;1.80;;
69629;SDS011;56857;52.212;5.496;2023-04-03T01:21:17;5.40;;;1.90;;
69629;SDS011;56857;52.212;5.496;2023-04-03T01:26:23;4.30;;;1.80;;
69629;SDS011;56857;52.212;5.496;2023-04-03T01:28:49;5.40;;;1.80;;
69629;SDS011;56857;52.212;5.496;2023-04-03T01:34:14;6.45;;;2.05;;
69629;SDS011;56857;52.212;5.496;2023-04-03T01:36:39;5.88;;;1.95;;
69629;SDS011;56857;52.212;5.496;2023-04-03T01:39:04;5.17;;;1.80;;
69629;SDS011;56857;52.212;5.496;2023-04-03T01:41:30;9.10;;;2.30;;
69629;SDS011;56857;52.212;5.496;2023-04-03T01:43:55;3.80;;;1.83;;
69629;SDS011;56857;52.212;5.496;2023-04-03T01:46:21;5.38;;;2.00;;
69629;SDS011;56857;52.212;5.496;2023-04-03T01:48:46;8.48;;;2.40;;
69629;SDS011;56857;52.212;5.496;2023-04-03T01:51:12;5.90;;;2.28;;
69629;SDS011;56857;52.212;5.496;2023-04-03T01:53:37;7.45;;;2.00;;
69629;SDS011;56857;52.212;5.496;2023-04-03T01:56:03;4.57;;;2.00;;
69629;SDS011;56857;52.212;5.496;2023-04-03T01:58:29;6.13;;;2.15;;
69629;SDS011;56857;52.212;5.496;2023-04-03T02:00:55;5.50;;;2.13;;
69629;SDS011;56857;52.212;5.496;2023-04-03T02:03:20;5.75;;;2.15;;
69629;SDS011;56857;52.212;5.496;2023-04-03T02:05:45;5.68;;;2.20;;
69629;SDS011;56857;52.212;5.496;2023-04-03T02:08:11;6.90;;;1.95;;
69629;SDS011;56857;52.212;5.496;2023-04-03T02:10:36;6.50;;;2.00;;
69629;SDS011;56857;52.212;5.496;2023-04-03T02:13:02;5.80;;;2.40;;
69629;SDS011;56857;52.212;5.496;2023-04-03T02:15:27;4.82;;;1.90;;
69629;SDS011;56857;52.212;5.496;2023-04-03T02:17:53;5.55;;;2.00;;
69629;SDS011;56857;52.212;5.496;2023-04-03T02:20:18;6.55;;;2.00;;
69629;SDS011;56857;52.212;5.496;2023-04-03T02:22:45;6.80;;;1.95;;
69629;SDS011;56857;52.212;5.496;2023-04-03T02:25:10;6.78;;;2.35;;
69629;SDS011;56857;52.212;5.496;2023-04-03T02:27:36;5.25;;;1.98;;
69629;SDS011;56857;52.212;5.496;2023-04-03T02:30:02;6.97;;;2.17;;
69629;SDS011;56857;52.212;5.496;2023-04-03T02:32:28;7.45;;;2.85;;
69629;SDS011;56857;52.212;5.496;2023-04-03T02:34:53;11.20;;;2.63;;
69629;SDS011;56857;52.212;5.496;2023-04-03T02:37:18;5.43;;;2.10;;
69629;SDS011;56857;52.212;5.496;2023-04-03T02:39:43;4.95;;;2.22;;
69629;SDS011;56857;52.212;5.496;2023-04-03T02:42:09;5.70;;;2.20;;
69629;SDS011;56857;52.212;5.496;2023-04-03T02:44:34;6.70;;;2.33;;
69629;SDS011;56857;52.212;5.496;2023-04-03T02:46:59;7.10;;;2.10;;
69629;SDS011;56857;52.212;5.496;2023-04-03T02:49:25;4.97;;;2.08;;
69629;SDS011;56857;52.212;5.496;2023-04-03T02:51:50;6.87;;;2.30;;
69629;SDS011;56857;52.212;5.496;2023-04-03T02:54:15;7.55;;;2.38;;
69629;SDS011;56857;52.212;5.496;2023-04-03T02:56:41;8.27;;;2.33;;
69629;SDS011;56857;52.212;5.496;2023-04-03T02:59:06;9.57;;;2.92;;
69629;SDS011;56857;52.212;5.496;2023-04-03T03:01:31;6.50;;;2.40;;
69629;SDS011;56857;52.212;5.496;2023-04-03T03:03:57;7.45;;;2.40;;
69629;SDS011;56857;52.212;5.496;2023-04-03T03:06:23;8.35;;;1.92;;
69629;SDS011;56857;52.212;5.496;2023-04-03T03:08:48;7.40;;;2.13;;
69629;SDS011;56857;52.212;5.496;2023-04-03T03:11:13;5.07;;;2.03;;
69629;SDS011;56857;52.212;5.496;2023-04-03T03:13:39;7.65;;;2.10;;
69629;SDS011;56857;52.212;5.496;2023-04-03T03:16:06;7.18;;;2.15;;
69629;SDS011;56857;52.212;5.496;2023-04-03T03:18:32;6.85;;;2.25;;
69629;SDS011;56857;52.212;5.496;2023-04-03T03:20:58;7.32;;;2.25;;
69629;SDS011;56857;52.212;5.496;2023-04-03T03:23:25;8.25;;;2.60;;
69629;SDS011;56857;52.212;5.496;2023-04-03T03:25:55;7.30;;;2.33;;
69629;SDS011;56857;52.212;5.496;2023-04-03T03:28:22;6.82;;;2.33;;
69629;SDS011;56857;52.212;5.496;2023-04-03T03:30:48;6.18;;;2.33;;
69629;SDS011;56857;52.212;5.496;2023-04-03T03:33:13;5.50;;;2.00;;
69629;SDS011;56857;52.212;5.496;2023-04-03T03:35:38;6.70;;;2.42;;
69629;SDS011;56857;52.212;5.496;2023-04-03T03:38:04;5.30;;;2.33;;
69629;SDS011;56857;52.212;5.496;2023-04-03T03:40:32;9.15;;;2.35;;
69629;SDS011;56857;52.212;5.496;2023-04-03T03:42:57;8.55;;;3.08;;
69629;SDS011;56857;52.212;5.496;2023-04-03T03:45:22;5.63;;;2.03;;
69629;SDS011;56857;52.212;5.496;2023-04-03T03:47:48;6.57;;;2.08;;
69629;SDS011;56857;52.212;5.496;2023-04-03T03:50:13;6.15;;;2.20;;
69629;SDS011;56857;52.212;5.496;2023-04-03T03:52:38;7.07;;;2.42;;
69629;SDS011;56857;52.212;5.496;2023-04-03T03:55:05;6.10;;;2.70;;
69629;SDS011;56857;52.212;5.496;2023-04-03T03:57:31;6.35;;;2.20;;
69629;SDS011;56857;52.212;5.496;2023-04-03T03:59:56;5.03;;;2.08;;
69629;SDS011;56857;52.212;5.496;2023-04-03T04:02:22;8.57;;;2.53;;
69629;SDS011;56857;52.212;5.496;2023-04-03T04:04:48;7.00;;;2.60;;
69629;SDS011;56857;52.212;5.496;2023-04-03T04:07:14;9.73;;;2.50;;
69629;SDS011;56857;52.212;5.496;2023-04-03T04:09:39;5.88;;;2.40;;
69629;SDS011;56857;52.212;5.496;2023-04-03T04:12:05;7.13;;;2.58;;
69629;SDS011;56857;52.212;5.496;2023-04-03T04:14:30;5.95;;;2.10;;
69629;SDS011;56857;52.212;5.496;2023-04-03T04:16:55;6.60;;;2.42;;
69629;SDS011;56857;52.212;5.496;2023-04-03T04:19:21;10.25;;;2.60;;
69629;SDS011;56857;52.212;5.496;2023-04-03T04:21:46;10.20;;;2.30;;
69629;SDS011;56857;52.212;5.496;2023-04-03T04:24:12;7.95;;;2.45;;
69629;SDS011;56857;52.212;5.496;2023-04-03T04:26:37;7.22;;;2.30;;
69629;SDS011;56857;52.212;5.496;2023-04-03T04:29:02;9.30;;;2.30;;
69629;SDS011;56857;52.212;5.496;2023-04-03T04:31:28;6.20;;;2.43;;
69629;SDS011;56857;52.212;5.496;2023-04-03T04:33:53;5.82;;;2.53;;
69629;SDS011;56857;52.212;5.496;2023-04-03T04:36:19;6.28;;;2.40;;
69629;SDS011;56857;52.212;5.496;2023-04-03T04:38:44;7.82;;;2.10;;
69629;SDS011;56857;52.212;5.496;2023-04-03T04:41:10;6.28;;;2.20;;
69629;SDS011;56857;52.212;5.496;2023-04-03T04:43:35;5.90;;;2.40;;
69629;SDS011;56857;52.212;5.496;2023-04-03T04:46:01;7.75;;;2.25;;
69629;SDS011;56857;52.212;5.496;2023-04-03T04:48:34;8.98;;;2.50;;
69629;SDS011;56857;52.212;5.496;2023-04-03T04:51:00;6.38;;;2.40;;
69629;SDS011;56857;52.212;5.496;2023-04-03T04:53:25;8.65;;;2.60;;
69629;SDS011;56857;52.212;5.496;2023-04-03T04:55:51;7.80;;;2.25;;
69629;SDS011;56857;52.212;5.496;2023-04-03T04:58:17;6.80;;;3.05;;
69629;SDS011;56857;52.212;5.496;2023-04-03T05:00:43;8.50;;;2.33;;
69629;SDS011;56857;52.212;5.496;2023-04-03T05:03:09;8.02;;;2.55;;
69629;SDS011;56857;52.212;5.496;2023-04-03T05:05:34;7.90;;;2.45;;
69629;SDS011;56857;52.212;5.496;2023-04-03T05:07:59;7.50;;;2.35;;
69629;SDS011;56857;52.212;5.496;2023-04-03T05:10:24;10.87;;;2.83;;
69629;SDS011;56857;52.212;5.496;2023-04-03T05:12:50;7.40;;;2.38;;
69629;SDS011;56857;52.212;5.496;2023-04-03T05:15:15;10.30;;;2.40;;
69629;SDS011;56857;52.212;5.496;2023-04-03T05:17:41;6.25;;;2.28;;
69629;SDS011;56857;52.212;5.496;2023-04-03T05:20:06;8.95;;;2.92;;
69629;SDS011;56857;52.212;5.496;2023-04-03T05:22:32;7.40;;;2.47;;
69629;SDS011;56857;52.212;5.496;2023-04-03T05:24:58;7.07;;;2.72;;
69629;SDS011;56857;52.212;5.496;2023-04-03T05:27:23;7.50;;;2.10;;
69629;SDS011;56857;52.212;5.496;2023-04-03T05:29:48;6.93;;;2.75;;
69629;SDS011;56857;52.212;5.496;2023-04-03T05:32:14;14.02;;;2.72;;
69629;SDS011;56857;52.212;5.496;2023-04-03T05:34:39;13.10;;;2.85;;
69629;SDS011;56857;52.212;5.496;2023-04-03T05:37:05;6.55;;;2.35;;
69629;SDS011;56857;52.212;5.496;2023-04-03T05:39:30;6.95;;;2.30;;
69629;SDS011;56857;52.212;5.496;2023-04-03T05:41:55;6.68;;;2.15;;
69629;SDS011;56857;52.212;5.496;2023-04-03T05:44:21;7.25;;;2.47;;
69629;SDS011;56857;52.212;5.496;2023-04-03T05:46:46;8.50;;;3.15;;
69629;SDS011;56857;52.212;5.496;2023-04-03T05:49:11;5.90;;;2.35;;
69629;SDS011;56857;52.212;5.496;2023-04-03T05:51:37;6.88;;;2.45;;
69629;SDS011;56857;52.212;5.496;2023-04-03T05:54:08;8.60;;;2.47;;
69629;SDS011;56857;52.212;5.496;2023-04-03T05:56:54;6.00;;;2.80;;
69629;SDS011;56857;52.212;5.496;2023-04-03T05:59:20;7.03;;;2.47;;
69629;SDS011;56857;52.212;5.496;2023-04-03T06:01:46;6.95;;;2.80;;
69629;SDS011;56857;52.212;5.496;2023-04-03T06:04:13;9.52;;;2.88;;
69629;SDS011;56857;52.212;5.496;2023-04-03T06:06:47;9.82;;;2.58;;
69629;SDS011;56857;52.212;5.496;2023-04-03T06:09:13;6.78;;;2.38;;
69629;SDS011;56857;52.212;5.496;2023-04-03T06:11:39;9.38;;;2.70;;
69629;SDS011;56857;52.212;5.496;2023-04-03T06:14:05;7.07;;;3.10;;
69629;SDS011;56857;52.212;5.496;2023-04-03T06:16:31;7.20;;;2.85;;
69629;SDS011;56857;52.212;5.496;2023-04-03T06:18:56;6.10;;;2.70;;
69629;SDS011;56857;52.212;5.496;2023-04-03T06:21:22;7.72;;;2.50;;
69629;SDS011;56857;52.212;5.496;2023-04-03T06:23:47;6.57;;;2.40;;
69629;SDS011;56857;52.212;5.496;2023-04-03T06:26:12;5.80;;;2.28;;
69629;SDS011;56857;52.212;5.496;2023-04-03T06:28:38;8.55;;;2.90;;
69629;SDS011;56857;52.212;5.496;2023-04-03T06:31:03;7.90;;;2.45;;
69629;SDS011;56857;52.212;5.496;2023-04-03T06:33:28;8.32;;;2.17;;
69629;SDS011;56857;52.212;5.496;2023-04-03T06:35:57;9.60;;;2.53;;
69629;SDS011;56857;52.212;5.496;2023-04-03T06:38:23;11.32;;;3.47;;
69629;SDS011;56857;52.212;5.496;2023-04-03T06:40:49;7.43;;;2.40;;
69629;SDS011;56857;52.212;5.496;2023-04-03T06:43:14;8.30;;;2.85;;
69629;SDS011;56857;52.212;5.496;2023-04-03T06:45:39;7.60;;;2.55;;
69629;SDS011;56857;52.212;5.496;2023-04-03T06:48:05;8.65;;;2.88;;
69629;SDS011;56857;52.212;5.496;2023-04-03T06:52:56;9.35;;;2.58;;
69629;SDS011;56857;52.212;5.496;2023-04-03T06:55:21;6.60;;;2.60;;
69629;SDS011;56857;52.212;5.496;2023-04-03T07:00:12;7.70;;;2.40;;
69629;SDS011;56857;52.212;5.496;2023-04-03T07:02:38;8.27;;;3.00;;
69629;SDS011;56857;52.212;5.496;2023-04-03T07:05:06;9.55;;;2.55;;
69629;SDS011;56857;52.212;5.496;2023-04-03T07:07:32;5.30;;;2.22;;
69629;SDS011;56857;52.212;5.496;2023-04-03T07:09:57;6.70;;;2.30;;
69629;SDS011;56857;52.212;5.496;2023-04-03T07:12:23;7.97;;;2.30;;
69629;SDS011;56857;52.212;5.496;2023-04-03T07:14:48;7.35;;;2.13;;
69629;SDS011;56857;52.212;5.496;2023-04-03T07:17:14;7.38;;;2.35;;
69629;SDS011;56857;52.212;5.496;2023-04-03T07:19:39;6.50;;;2.10;;
69629;SDS011;56857;52.212;5.496;2023-04-03T07:22:04;8.67;;;2.50;;
69629;SDS011;56857;52.212;5.496;2023-04-03T07:24:29;5.88;;;2.10;;
69629;SDS011;56857;52.212;5.496;2023-04-03T07:26:56;7.20;;;2.38;;
69629;SDS011;56857;52.212;5.496;2023-04-03T07:29:21;8.52;;;2.30;;
69629;SDS011;56857;52.212;5.496;2023-04-03T07:31:47;7.40;;;2.30;;
69629;SDS011;56857;52.212;5.496;2023-04-03T07:34:12;8.10;;;2.55;;
69629;SDS011;56857;52.212;5.496;2023-04-03T07:36:38;9.43;;;2.15;;
69629;SDS011;56857;52.212;5.496;2023-04-03T07:39:03;6.57;;;2.45;;
69629;SDS011;56857;52.212;5.496;2023-04-03T07:41:28;9.73;;;2.05;;
69629;SDS011;56857;52.212;5.496;2023-04-03T07:43:54;6.95;;;2.10;;
69629;SDS011;56857;52.212;5.496;2023-04-03T07:46:19;5.72;;;2.00;;
69629;SDS011;56857;52.212;5.496;2023-04-03T07:48:45;10.80;;;2.30;;
69629;SDS011;56857;52.212;5.496;2023-04-03T07:51:11;5.07;;;2.00;;
69629;SDS011;56857;52.212;5.496;2023-04-03T07:53:36;9.25;;;2.33;;
69629;SDS011;56857;52.212;5.496;2023-04-03T07:56:01;5.63;;;1.83;;
69629;SDS011;56857;52.212;5.496;2023-04-03T07:58:26;8.52;;;2.30;;
69629;SDS011;56857;52.212;5.496;2023-04-03T08:00:52;6.50;;;2.13;;
69629;SDS011;56857;52.212;5.496;2023-04-03T08:03:17;10.75;;;2.15;;
69629;SDS011;56857;52.212;5.496;2023-04-03T08:05:43;7.27;;;2.07;;
69629;SDS011;56857;52.212;5.496;2023-04-03T08:08:11;6.93;;;2.10;;
69629;SDS011;56857;52.212;5.496;2023-04-03T08:10:39;5.65;;;1.90;;
69629;SDS011;56857;52.212;5.496;2023-04-03T08:13:05;5.15;;;1.95;;
69629;SDS011;56857;52.212;5.496;2023-04-03T08:15:31;5.00;;;1.90;;
69629;SDS011;56857;52.212;5.496;2023-04-03T08:17:57;6.55;;;1.90;;
69629;SDS011;56857;52.212;5.496;2023-04-03T08:20:23;7.35;;;1.90;;
69629;SDS011;56857;52.212;5.496;2023-04-03T08:22:48;6.43;;;1.90;;
69629;SDS011;56857;52.212;5.496;2023-04-03T08:25:14;6.55;;;1.92;;
69629;SDS011;56857;52.212;5.496;2023-04-03T08:27:40;5.72;;;1.58;;
69629;SDS011;56857;52.212;5.496;2023-04-03T08:30:05;5.90;;;1.60;;
69629;SDS011;56857;52.212;5.496;2023-04-03T08:32:32;5.15;;;1.75;;
69629;SDS011;56857;52.212;5.496;2023-04-03T08:34:59;5.13;;;1.85;;
69629;SDS011;56857;52.212;5.496;2023-04-03T08:37:24;3.67;;;1.48;;
69629;SDS011;56857;52.212;5.496;2023-04-03T08:39:49;3.30;;;1.42;;
69629;SDS011;56857;52.212;5.496;2023-04-03T08:42:16;3.15;;;1.27;;
69629;SDS011;56857;52.212;5.496;2023-04-03T08:44:57;3.97;;;1.45;;
69629;SDS011;56857;52.212;5.496;2023-04-03T08:48:00;4.60;;;1.40;;
69629;SDS011;56857;52.212;5.496;2023-04-03T08:50:26;3.88;;;1.40;;
69629;SDS011;56857;52.212;5.496;2023-04-03T08:52:58;4.05;;;1.50;;
69629;SDS011;56857;52.212;5.496;2023-04-03T08:58:06;4.45;;;1.50;;
69629;SDS011;56857;52.212;5.496;2023-04-03T09:03:23;5.95;;;1.75;;
69629;SDS011;56857;52.212;5.496;2023-04-03T09:11:18;5.75;;;1.80;;
69629;SDS011;56857;52.212;5.496;2023-04-03T09:16:55;3.80;;;1.20;;
69629;SDS011;56857;52.212;5.496;2023-04-03T09:21:58;3.92;;;2.22;;
69629;SDS011;56857;52.212;5.496;2023-04-03T09:24:27;3.58;;;1.25;;
69629;SDS011;56857;52.212;5.496;2023-04-03T09:26:55;5.10;;;1.20;;
69629;SDS011;56857;52.212;5.496;2023-04-03T09:29:24;4.35;;;1.48;;
69629;SDS011;56857;52.212;5.496;2023-04-03T09:31:52;3.22;;;1.10;;
69629;SDS011;56857;52.212;5.496;2023-04-03T09:34:37;4.25;;;1.15;;
69629;SDS011;56857;52.212;5.496;2023-04-03T09:37:06;1.67;;;0.82;;
69629;SDS011;56857;52.212;5.496;2023-04-03T09:39:32;1.67;;;0.90;;
69629;SDS011;56857;52.212;5.496;2023-04-03T09:42:24;1.85;;;0.80;;
69629;SDS011;56857;52.212;5.496;2023-04-03T09:44:54;3.65;;;1.00;;
69629;SDS011;56857;52.212;5.496;2023-04-03T09:50:09;2.88;;;1.00;;
69629;SDS011;56857;52.212;5.496;2023-04-03T09:52:37;1.73;;;0.85;;
69629;SDS011;56857;52.212;5.496;2023-04-03T09:55:07;3.45;;;1.00;;
69629;SDS011;56857;52.212;5.496;2023-04-03T09:57:33;2.50;;;1.00;;
69629;SDS011;56857;52.212;5.496;2023-04-03T10:00:00;2.72;;;1.00;;
69629;SDS011;56857;52.212;5.496;2023-04-03T10:02:32;2.92;;;0.90;;
69629;SDS011;56857;52.212;5.496;2023-04-03T10:05:00;3.20;;;1.00;;
69629;SDS011;56857;52.212;5.496;2023-04-03T10:07:31;1.77;;;0.98;;
69629;SDS011;56857;52.212;5.496;2023-04-03T10:10:03;5.38;;;1.15;;
69629;SDS011;56857;52.212;5.496;2023-04-03T10:12:52;3.20;;;0.95;;
69629;SDS011;56857;52.212;5.496;2023-04-03T10:15:46;3.03;;;1.05;;
69629;SDS011;56857;52.212;5.496;2023-04-03T10:20:54;2.90;;;0.90;;
69629;SDS011;56857;52.212;5.496;2023-04-03T10:23:32;3.00;;;0.95;;
69629;SDS011;56857;52.212;5.496;2023-04-03T10:29:07;3.05;;;0.90;;
69629;SDS011;56857;52.212;5.496;2023-04-03T10:32:10;2.75;;;1.00;;
69629;SDS011;56857;52.212;5.496;2023-04-03T10:34:37;3.75;;;1.30;;
69629;SDS011;56857;52.212;5.496;2023-04-03T10:37:12;2.83;;;1.00;;
69629;SDS011;56857;52.212;5.496;2023-04-03T10:48:00;2.50;;;1.20;;
69629;SDS011;56857;52.212;5.496;2023-04-03T10:54:18;3.72;;;1.10;;
69629;SDS011;56857;52.212;5.496;2023-04-03T10:56:28;2.15;;;1.00;;
69629;SDS011;56857;52.212;5.496;2023-04-03T10:59:02;3.17;;;1.08;;
69629;SDS011;56857;52.212;5.496;2023-04-03T11:02:07;3.35;;;1.20;;
69629;SDS011;56857;52.212;5.496;2023-04-03T11:04:50;1.52;;;0.80;;
69629;SDS011;56857;52.212;5.496;2023-04-03T11:07:20;2.00;;;0.85;;
69629;SDS011;56857;52.212;5.496;2023-04-03T11:09:49;3.70;;;1.00;;
69629;SDS011;56857;52.212;5.496;2023-04-03T11:15:20;3.45;;;1.20;;
69629;SDS011;56857;52.212;5.496;2023-04-03T11:17:58;1.70;;;1.00;;
69629;SDS011;56857;52.212;5.496;2023-04-03T11:20:31;1.85;;;1.02;;
69629;SDS011;56857;52.212;5.496;2023-04-03T11:23:02;4.18;;;1.23;;
69629;SDS011;56857;52.212;5.496;2023-04-03T11:25:35;1.85;;;1.00;;
69629;SDS011;56857;52.212;5.496;2023-04-03T11:28:04;3.58;;;1.20;;
69629;SDS011;56857;52.212;5.496;2023-04-03T11:30:56;2.88;;;1.05;;
69629;SDS011;56857;52.212;5.496;2023-04-03T11:36:44;3.20;;;0.98;;
69629;SDS011;56857;52.212;5.496;2023-04-03T11:39:18;8.52;;;0.82;;
69629;SDS011;56857;52.212;5.496;2023-04-03T11:41:48;2.75;;;1.00;;
69629;SDS011;56857;52.212;5.496;2023-04-03T11:46:56;4.25;;;1.25;;
69629;SDS011;56857;52.212;5.496;2023-04-03T11:50:08;2.80;;;0.90;;
69629;SDS011;56857;52.212;5.496;2023-04-03T11:57:46;2.92;;;0.90;;
69629;SDS011;56857;52.212;5.496;2023-04-03T12:13:41;2.35;;;1.10;;
69629;SDS011;56857;52.212;5.496;2023-04-03T12:45:38;5.10;;;1.20;;
69629;SDS011;56857;52.212;5.496;2023-04-03T12:50:38;3.53;;;1.30;;
69629;SDS011;56857;52.212;5.496;2023-04-03T12:53:10;2.67;;;1.23;;
69629;SDS011;56857;52.212;5.496;2023-04-03T12:55:57;5.40;;;1.30;;
69629;SDS011;56857;52.212;5.496;2023-04-03T12:58:45;5.95;;;1.38;;
69629;SDS011;56857;52.212;5.496;2023-04-03T13:01:11;4.82;;;1.20;;
69629;SDS011;56857;52.212;5.496;2023-04-03T13:03:40;3.00;;;1.23;;
69629;SDS011;56857;52.212;5.496;2023-04-03T13:06:21;4.00;;;1.25;;
69629;SDS011;56857;52.212;5.496;2023-04-03T13:08:55;3.90;;;1.33;;
69629;SDS011;56857;52.212;5.496;2023-04-03T13:11:22;2.92;;;1.17;;
69629;SDS011;56857;52.212;5.496;2023-04-03T13:13:54;4.28;;;1.60;;
69629;SDS011;56857;52.212;5.496;2023-04-03T13:16:26;4.32;;;1.23;;
69629;SDS011;56857;52.212;5.496;2023-04-03T13:18:52;5.00;;;1.40;;
69629;SDS011;56857;52.212;5.496;2023-04-03T13:21:23;4.38;;;1.17;;
69629;SDS011;56857;52.212;5.496;2023-04-03T13:23:54;3.83;;;1.60;;
69629;SDS011;56857;52.212;5.496;2023-04-03T13:26:22;6.45;;;1.42;;
69629;SDS011;56857;52.212;5.496;2023-04-03T13:28:50;3.75;;;1.17;;
69629;SDS011;56857;52.212;5.496;2023-04-03T13:31:26;4.40;;;1.38;;
69629;SDS011;56857;52.212;5.496;2023-04-03T13:39:43;4.28;;;1.40;;
69629;SDS011;56857;52.212;5.496;2023-04-03T13:42:25;5.05;;;1.27;;
69629;SDS011;56857;52.212;5.496;2023-04-03T13:45:36;2.45;;;1.10;;
69629;SDS011;56857;52.212;5.496;2023-04-03T13:47:53;3.03;;;1.50;;
69629;SDS011;56857;52.212;5.496;2023-04-03T13:50:32;4.70;;;1.33;;
69629;SDS011;56857;52.212;5.496;2023-04-03T13:53:02;6.25;;;1.40;;
69629;SDS011;56857;52.212;5.496;2023-04-03T13:55:36;3.78;;;1.30;;
69629;SDS011;56857;52.212;5.496;2023-04-03T13:58:26;3.40;;;1.35;;
69629;SDS011;56857;52.212;5.496;2023-04-03T14:03:41;4.35;;;1.73;;
69629;SDS011;56857;52.212;5.496;2023-04-03T14:06:17;4.32;;;1.42;;
69629;SDS011;56857;52.212;5.496;2023-04-03T14:08:44;7.47;;;1.45;;
69629;SDS011;56857;52.212;5.496;2023-04-03T14:11:18;5.28;;;1.60;;
69629;SDS011;56857;52.212;5.496;2023-04-03T14:13:45;5.28;;;1.45;;
69629;SDS011;56857;52.212;5.496;2023-04-03T14:16:14;4.28;;;1.40;;
69629;SDS011;56857;52.212;5.496;2023-04-03T14:18:44;4.63;;;1.60;;
69629;SDS011;56857;52.212;5.496;2023-04-03T14:21:13;7.18;;;1.92;;
69629;SDS011;56857;52.212;5.496;2023-04-03T14:23:40;3.90;;;1.40;;
69629;SDS011;56857;52.212;5.496;2023-04-03T14:26:17;4.13;;;1.80;;
69629;SDS011;56857;52.212;5.496;2023-04-03T14:28:46;4.28;;;1.25;;
69629;SDS011;56857;52.212;5.496;2023-04-03T14:31:14;4.07;;;1.45;;
69629;SDS011;56857;52.212;5.496;2023-04-03T14:33:40;5.90;;;1.20;;
69629;SDS011;56857;52.212;5.496;2023-04-03T14:36:16;8.00;;;1.70;;
69629;SDS011;56857;52.212;5.496;2023-04-03T14:38:45;4.68;;;1.42;;
69629;SDS011;56857;52.212;5.496;2023-04-03T14:41:12;4.60;;;1.40;;
69629;SDS011;56857;52.212;5.496;2023-04-03T14:43:39;4.32;;;1.40;;
69629;SDS011;56857;52.212;5.496;2023-04-03T14:46:05;3.20;;;1.23;;
69629;SDS011;56857;52.212;5.496;2023-04-03T14:48:34;6.95;;;1.40;;
69629;SDS011;56857;52.212;5.496;2023-04-03T14:51:00;6.80;;;2.03;;
69629;SDS011;56857;52.212;5.496;2023-04-03T14:53:25;4.55;;;1.60;;
69629;SDS011;56857;52.212;5.496;2023-04-03T14:55:50;5.63;;;1.70;;
69629;SDS011;56857;52.212;5.496;2023-04-03T14:58:19;4.50;;;1.77;;
69629;SDS011;56857;52.212;5.496;2023-04-03T15:00:45;4.57;;;1.80;;
69629;SDS011;56857;52.212;5.496;2023-04-03T15:03:20;6.20;;;2.00;;
69629;SDS011;56857;52.212;5.496;2023-04-03T15:05:47;3.70;;;1.30;;
69629;SDS011;56857;52.212;5.496;2023-04-03T15:08:47;4.63;;;1.50;;
69629;SDS011;56857;52.212;5.496;2023-04-03T15:11:06;5.55;;;1.70;;
69629;SDS011;56857;52.212;5.496;2023-04-03T15:13:32;4.28;;;1.42;;
69629;SDS011;56857;52.212;5.496;2023-04-03T15:15:57;5.75;;;1.52;;
69629;SDS011;56857;52.212;5.496;2023-04-03T15:18:24;5.97;;;1.70;;
69629;SDS011;56857;52.212;5.496;2023-04-03T15:20:51;6.63;;;1.67;;
69629;SDS011;56857;52.212;5.496;2023-04-03T15:23:17;5.57;;;1.45;;
69629;SDS011;56857;52.212;5.496;2023-04-03T15:25:44;6.03;;;1.73;;
69629;SDS011;56857;52.212;5.496;2023-04-03T15:28:22;5.93;;;1.98;;
69629;SDS011;56857;52.212;5.496;2023-04-03T15:30:52;4.53;;;1.50;;
69629;SDS011;56857;52.212;5.496;2023-04-03T15:33:17;3.80;;;1.50;;
69629;SDS011;56857;52.212;5.496;2023-04-03T15:35:43;6.07;;;1.65;;
69629;SDS011;56857;52.212;5.496;2023-04-03T15:38:09;5.25;;;1.83;;
69629;SDS011;56857;52.212;5.496;2023-04-03T15:40:34;4.68;;;1.70;;
69629;SDS011;56857;52.212;5.496;2023-04-03T15:42:59;5.55;;;1.60;;
69629;SDS011;56857;52.212;5.496;2023-04-03T15:45:25;5.55;;;1.40;;
69629;SDS011;56857;52.212;5.496;2023-04-03T15:47:54;5.50;;;1.80;;
69629;SDS011;56857;52.212;5.496;2023-04-03T15:50:19;5.20;;;1.52;;
69629;SDS011;56857;52.212;5.496;2023-04-03T15:52:45;3.92;;;1.45;;
69629;SDS011;56857;52.212;5.496;2023-04-03T15:55:11;6.10;;;1.60;;
69629;SDS011;56857;52.212;5.496;2023-04-03T15:57:36;5.65;;;1.60;;
69629;SDS011;56857;52.212;5.496;2023-04-03T16:00:02;6.27;;;1.43;;
69629;SDS011;56857;52.212;5.496;2023-04-03T16:02:28;8.48;;;2.10;;
69629;SDS011;56857;52.212;5.496;2023-04-03T16:04:54;5.13;;;1.70;;
69629;SDS011;56857;52.212;5.496;2023-04-03T16:07:20;6.70;;;1.73;;
69629;SDS011;56857;52.212;5.496;2023-04-03T16:09:46;6.28;;;1.70;;
69629;SDS011;56857;52.212;5.496;2023-04-03T16:12:11;3.50;;;1.50;;
69629;SDS011;56857;52.212;5.496;2023-04-03T16:14:36;3.97;;;1.50;;
69629;SDS011;56857;52.212;5.496;2023-04-03T16:17:01;6.00;;;1.75;;
69629;SDS011;56857;52.212;5.496;2023-04-03T16:19:28;4.82;;;1.65;;
69629;SDS011;56857;52.212;5.496;2023-04-03T16:21:54;5.65;;;1.80;;
69629;SDS011;56857;52.212;5.496;2023-04-03T16:24:20;5.25;;;1.60;;
69629;SDS011;56857;52.212;5.496;2023-04-03T16:26:45;5.38;;;1.42;;
69629;SDS011;56857;52.212;5.496;2023-04-03T16:29:11;4.47;;;1.50;;
69629;SDS011;56857;52.212;5.496;2023-04-03T16:31:36;3.88;;;1.55;;
69629;SDS011;56857;52.212;5.496;2023-04-03T16:34:01;4.35;;;1.15;;
69629;SDS011;56857;52.212;5.496;2023-04-03T16:36:27;4.72;;;1.52;;
69629;SDS011;56857;52.212;5.496;2023-04-03T16:38:53;5.03;;;2.00;;
69629;SDS011;56857;52.212;5.496;2023-04-03T16:41:18;6.68;;;1.80;;
69629;SDS011;56857;52.212;5.496;2023-04-03T16:43:43;4.83;;;1.40;;
69629;SDS011;56857;52.212;5.496;2023-04-03T16:46:09;4.63;;;1.58;;
69629;SDS011;56857;52.212;5.496;2023-04-03T16:48:34;3.92;;;1.42;;